Santa Helena de Goias, Brazil
Current Conditions -  °F | °C
As of 3:25 PM on Sunday 23 Nov 2014 (Local Time) from SBGO Reporting Station
Thunderstorm Thunderstorm  
Wind Chill: 70°   Ceiling: 10000
Heat Index: 70°   Visibility: 0.62mi
Dew Point: 66°   Wind: 14mph
Humidity: 88%   Direction: 340°NNW
Pressure: 29.97"   Gusts: NA
Location:  17.81°S, 50.6°W
Report Text: SBGO 231725Z 34012KT 1000 TSRA SCT030 FEW035CB OVC100 21/19 Q1015
Loading
Personal Weather Stations






























Interactive Weather Map New forecast layout! Learn more

10-Day Weather Forecast

Advertisements
Track Severe Weather on mobile